Time;durP1;ratioP1;P1;durP2;ratioP2;P2;SDS_P1;SDS_P2;PMS_P1;PMS_P2;Temp;Humidity;BMP_temperature;BMP_pressure;BME280_temperature;BME280_humidity;BME280_pressure;Samples;Min_cycle;Max_cycle;Signal;HPM_P1;HPM_P2
2021/11/15 00:01:05;;;;;;;8.05;7.25;;;11.70;99.90;;;;;;4863545;29;20057;-53
2021/11/15 00:03:32;;;;;;;8.02;7.22;;;11.60;99.90;;;;;;4870677;29;20416;-52
2021/11/15 00:05:59;;;;;;;8.80;7.90;;;11.60;99.90;;;;;;4859139;29;20091;-47
2021/11/15 00:08:26;;;;;;;8.10;7.30;;;11.60;99.90;;;;;;4869413;29;20397;-50
2021/11/15 00:10:53;;;;;;;7.75;6.90;;;11.60;99.90;;;;;;4858300;29;20136;-48
2021/11/15 00:13:19;;;;;;;8.35;6.78;;;11.60;99.90;;;;;;4869816;29;20136;-48
2021/11/15 00:15:46;;;;;;;6.93;6.22;;;11.60;99.90;;;;;;4856806;29;20445;-51
2021/11/15 00:18:13;;;;;;;8.38;7.00;;;11.60;99.90;;;;;;4866843;29;20077;-50
2021/11/15 00:20:40;;;;;;;8.60;7.22;;;11.70;99.90;;;;;;4877776;29;20521;-51
2021/11/15 00:23:06;;;;;;;7.80;6.97;;;11.70;99.90;;;;;;4868819;29;20519;-53
2021/11/15 00:25:33;;;;;;;8.38;7.20;;;11.70;99.90;;;;;;4856116;29;20483;-53
2021/11/15 00:28:00;;;;;;;9.20;7.05;;;11.70;99.90;;;;;;4873041;29;20498;-51
2021/11/15 00:30:27;;;;;;;9.00;7.47;;;11.70;99.90;;;;;;4877386;29;20068;-50
2021/11/15 00:32:54;;;;;;;7.90;7.10;;;11.70;99.90;;;;;;4853921;29;20052;-52
2021/11/15 00:35:21;;;;;;;7.90;6.95;;;11.70;99.90;;;;;;4881468;29;20095;-50
2021/11/15 00:37:47;;;;;;;7.78;6.97;;;11.70;99.90;;;;;;4866328;29;20076;-51
2021/11/15 00:40:15;;;;;;;7.53;6.72;;;11.70;99.90;;;;;;4876269;29;20071;-45
2021/11/15 00:42:42;;;;;;;7.68;6.82;;;11.70;99.90;;;;;;4872046;29;20477;-49
2021/11/15 00:45:09;;;;;;;8.23;6.75;;;11.60;99.90;;;;;;4883438;29;20956;-48
2021/11/15 00:47:36;;;;;;;6.75;6.05;;;11.60;99.90;;;;;;4886817;29;20674;-52
2021/11/15 00:50:04;;;;;;;7.55;6.68;;;11.60;99.90;;;;;;4860820;29;20140;-53
2021/11/15 00:52:31;;;;;;;9.27;7.15;;;11.60;99.90;;;;;;4876723;29;20076;-51
2021/11/15 00:54:58;;;;;;;7.97;6.75;;;11.60;99.90;;;;;;4879873;29;20132;-48
2021/11/15 00:57:25;;;;;;;8.73;7.30;;;11.60;99.90;;;;;;4872143;29;20057;-50
2021/11/15 00:59:51;;;;;;;8.07;6.30;;;11.70;99.90;;;;;;4872865;29;20066;-51
2021/11/15 01:02:20;;;;;;;7.30;6.55;;;11.70;99.90;;;;;;4853805;29;20148;-53
2021/11/15 01:04:46;;;;;;;8.55;6.93;;;11.60;99.90;;;;;;4882143;29;20483;-49
2021/11/15 01:07:13;;;;;;;8.52;6.85;;;11.60;99.90;;;;;;4886715;29;20152;-50
2021/11/15 01:09:40;;;;;;;7.15;6.45;;;11.60;99.90;;;;;;4869293;29;20100;-51
2021/11/15 01:12:07;;;;;;;7.97;6.20;;;11.60;99.90;;;;;;4869377;29;20478;-50
2021/11/15 01:14:34;;;;;;;7.80;6.35;;;11.60;99.90;;;;;;4880395;29;20084;-46
2021/11/15 01:17:02;;;;;;;7.30;6.55;;;11.60;99.90;;;;;;4887061;29;20555;-48
2021/11/15 01:19:29;;;;;;;7.35;6.57;;;11.60;99.90;;;;;;4886279;29;20131;-49
2021/11/15 01:21:55;;;;;;;7.90;6.45;;;11.60;99.90;;;;;;4854598;29;20143;-46
2021/11/15 01:24:22;;;;;;;8.15;6.32;;;11.70;99.90;;;;;;4883182;29;20315;-50
2021/11/15 01:26:49;;;;;;;6.93;5.85;;;11.60;99.90;;;;;;4885746;29;20078;-45
2021/11/15 01:29:15;;;;;;;7.70;6.90;;;11.70;99.90;;;;;;4883863;29;20226;-49
2021/11/15 01:31:42;;;;;;;6.50;5.85;;;11.60;99.90;;;;;;4886310;29;20146;-51
2021/11/15 01:34:12;;;;;;;6.90;5.75;;;11.60;99.90;;;;;;4882554;29;20108;-52
2021/11/15 01:36:39;;;;;;;6.78;5.97;;;11.60;99.90;;;;;;4867355;29;20545;-49
2021/11/15 01:39:05;;;;;;;6.75;6.05;;;11.60;99.90;;;;;;4874621;29;20458;-51
2021/11/15 01:41:32;;;;;;;6.97;6.10;;;11.60;99.90;;;;;;4876922;29;20382;-49
2021/11/15 01:43:59;;;;;;;6.65;5.78;;;11.60;99.90;;;;;;4873959;29;20049;-49
2021/11/15 01:46:26;;;;;;;5.78;5.10;;;11.60;99.90;;;;;;4876307;29;20375;-50
2021/11/15 01:48:53;;;;;;;6.40;5.65;;;11.60;99.90;;;;;;4878347;29;20128;-51
2021/11/15 01:51:19;;;;;;;5.45;4.80;;;11.60;99.90;;;;;;4879253;29;20539;-51
2021/11/15 01:53:48;;;;;;;5.82;5.30;;;11.60;99.90;;;;;;4874848;29;20192;-48
2021/11/15 01:56:15;;;;;;;5.97;5.35;;;11.60;99.90;;;;;;4870716;29;20137;-51
2021/11/15 01:58:42;;;;;;;7.25;4.93;;;11.60;99.90;;;;;;4882605;29;20135;-54
2021/11/15 02:01:08;;;;;;;5.47;4.93;;;11.60;99.90;;;;;;4870684;29;20224;-50
2021/11/15 02:03:35;;;;;;;6.35;5.13;;;11.60;99.90;;;;;;4872729;29;20247;-50
2021/11/15 02:06:03;;;;;;;5.70;5.10;;;11.60;99.90;;;;;;4874676;29;20140;-48
2021/11/15 02:08:29;;;;;;;5.90;5.30;;;11.60;99.90;;;;;;4880894;29;20540;-51
2021/11/15 02:10:56;;;;;;;6.63;4.93;;;11.60;99.90;;;;;;4874598;29;20096;-53
2021/11/15 02:13:24;;;;;;;5.18;4.68;;;11.60;99.90;;;;;;4837636;29;20437;-48
2021/11/15 02:15:51;;;;;;;5.47;4.85;;;11.60;99.90;;;;;;4884259;29;20163;-47
2021/11/15 02:18:19;;;;;;;5.22;4.72;;;11.60;99.90;;;;;;4868182;29;20496;-53
2021/11/15 02:20:56;;;;;;;5.63;4.65;;;11.60;99.90;;;;;;4876375;29;20520;-46
2021/11/15 02:23:24;;;;;;;6.10;5.15;;;11.60;99.90;;;;;;4871142;29;20080;-47
2021/11/15 02:25:52;;;;;;;5.35;4.75;;;11.60;99.90;;;;;;4868906;29;20048;-50
2021/11/15 02:28:24;;;;;;;6.00;4.60;;;11.60;99.90;;;;;;4851434;29;20081;-52
2021/11/15 02:30:51;;;;;;;4.80;4.28;;;11.60;99.90;;;;;;4882460;29;20135;-52
2021/11/15 02:33:18;;;;;;;6.05;5.38;;;11.60;99.90;;;;;;4882071;29;20099;-51
2021/11/15 02:35:44;;;;;;;7.18;5.15;;;11.60;99.90;;;;;;4870083;29;20738;-47
2021/11/15 02:38:11;;;;;;;7.15;6.13;;;11.60;99.90;;;;;;4869345;29;20228;-50
2021/11/15 02:40:38;;;;;;;6.65;5.22;;;11.60;99.90;;;;;;4879216;29;20104;-50
2021/11/15 02:43:05;;;;;;;5.70;5.00;;;11.60;99.90;;;;;;4876014;29;20144;-50
2021/11/15 02:45:32;;;;;;;5.47;4.70;;;11.60;99.90;;;;;;4887617;29;20128;-52
2021/11/15 02:47:59;;;;;;;5.90;5.05;;;11.60;99.90;;;;;;4886729;29;20112;-50
2021/11/15 02:50:27;;;;;;;6.18;4.80;;;11.60;99.90;;;;;;4883848;29;20597;-48
2021/11/15 02:52:59;;;;;;;6.93;5.43;;;11.60;99.90;;;;;;4885704;29;20049;-49
2021/11/15 02:55:26;;;;;;;6.57;5.13;;;11.50;99.90;;;;;;4886040;29;20135;-51
2021/11/15 02:57:53;;;;;;;5.93;5.07;;;11.50;99.90;;;;;;4886444;29;20465;-50
2021/11/15 03:00:35;;;;;;;6.00;5.40;;;11.50;99.90;;;;;;4884648;29;20084;-46
2021/11/15 03:03:01;;;;;;;5.45;4.55;;;11.50;99.90;;;;;;4875437;29;20071;-46
2021/11/15 03:05:34;;;;;;;5.97;4.88;;;11.50;99.90;;;;;;4870438;29;20103;-46
2021/11/15 03:08:01;;;;;;;5.63;4.45;;;11.50;99.90;;;;;;4869365;29;20060;-52
2021/11/15 03:10:28;;;;;;;5.40;4.57;;;11.60;99.90;;;;;;4886027;29;20348;-49
2021/11/15 03:12:55;;;;;;;5.43;4.90;;;11.50;99.90;;;;;;4868078;29;20087;-52
2021/11/15 03:15:23;;;;;;;6.15;5.05;;;11.50;99.90;;;;;;4886559;29;20410;-50
2021/11/15 03:17:55;;;;;;;6.18;5.07;;;11.50;99.90;;;;;;4881400;29;20117;-50
2021/11/15 03:20:23;;;;;;;5.93;5.10;;;11.50;99.90;;;;;;4881128;29;20080;-50
2021/11/15 03:22:50;;;;;;;5.53;4.93;;;11.50;99.90;;;;;;4865894;29;20080;-53
2021/11/15 03:25:17;;;;;;;5.80;4.93;;;11.50;99.90;;;;;;4868622;29;20075;-52
2021/11/15 03:27:43;;;;;;;5.82;4.78;;;11.50;99.90;;;;;;4868940;29;20132;-50
2021/11/15 03:30:10;;;;;;;5.72;4.70;;;11.40;99.90;;;;;;4875906;29;20068;-51
2021/11/15 03:32:38;;;;;;;4.97;4.47;;;11.40;99.90;;;;;;4867107;29;20693;-48
2021/11/15 03:35:05;;;;;;;5.68;4.90;;;11.40;99.90;;;;;;4885811;29;20334;-53
2021/11/15 03:37:32;;;;;;;6.13;4.80;;;11.40;99.90;;;;;;4885907;29;20048;-48
2021/11/15 03:39:59;;;;;;;4.97;4.47;;;11.40;99.90;;;;;;4881400;29;20425;-51
2021/11/15 03:42:26;;;;;;;4.82;4.30;;;11.40;99.90;;;;;;4871627;29;20472;-51
2021/11/15 03:44:53;;;;;;;4.88;4.15;;;11.40;99.90;;;;;;4886324;29;20135;-50
2021/11/15 03:47:21;;;;;;;5.50;4.70;;;11.40;99.90;;;;;;4886605;29;20124;-50
2021/11/15 03:49:48;;;;;;;5.22;4.57;;;11.40;99.90;;;;;;4871693;29;20140;-47
2021/11/15 03:52:15;;;;;;;5.25;4.45;;;11.40;99.90;;;;;;4868824;29;20064;-45
2021/11/15 03:54:42;;;;;;;5.60;4.93;;;11.40;99.90;;;;;;4869329;29;20167;-47
2021/11/15 03:57:09;;;;;;;4.72;3.90;;;11.40;99.90;;;;;;4867933;29;20529;-48
2021/11/15 03:59:35;;;;;;;4.57;4.07;;;11.40;99.90;;;;;;4871535;29;20151;-52
2021/11/15 04:02:02;;;;;;;4.60;4.00;;;11.40;99.90;;;;;;4885634;29;20049;-48
2021/11/15 04:04:38;;;;;;;5.25;4.25;;;11.40;99.90;;;;;;4877225;29;20266;-50
2021/11/15 04:07:07;;;;;;;5.38;4.30;;;11.40;99.90;;;;;;4877119;29;20246;-50
2021/11/15 04:09:34;;;;;;;5.18;3.90;;;11.30;99.90;;;;;;4879533;29;20155;-53
2021/11/15 04:12:01;;;;;;;5.78;4.38;;;11.40;99.90;;;;;;4868298;29;20486;-52
2021/11/15 04:14:27;;;;;;;5.97;4.75;;;11.40;99.90;;;;;;4888475;29;20143;-49
2021/11/15 04:16:54;;;;;;;4.60;3.88;;;11.40;99.90;;;;;;4889993;29;20091;-48
2021/11/15 04:19:21;;;;;;;4.97;4.32;;;11.30;99.90;;;;;;4871648;29;20045;-49
2021/11/15 04:21:50;;;;;;;4.43;3.75;;;11.40;99.90;;;;;;4872773;29;20520;-50
2021/11/15 04:24:17;;;;;;;4.75;3.90;;;11.30;99.90;;;;;;4880741;29;20140;-47
2021/11/15 04:26:44;;;;;;;6.07;4.22;;;11.40;99.90;;;;;;4839649;29;20076;-53
2021/11/15 04:29:10;;;;;;;6.32;4.43;;;11.30;99.90;;;;;;4875840;29;20076;-51
2021/11/15 04:31:37;;;;;;;5.20;3.97;;;11.30;99.90;;;;;;4876526;29;20140;-51
2021/11/15 04:34:04;;;;;;;5.68;4.85;;;11.30;99.90;;;;;;4851775;29;20112;-50
2021/11/15 04:36:31;;;;;;;4.88;4.07;;;11.30;99.90;;;;;;4873498;29;20502;-50
2021/11/15 04:38:57;;;;;;;5.03;4.10;;;11.30;99.90;;;;;;4870920;29;20088;-51
2021/11/15 04:41:24;;;;;;;5.03;4.53;;;11.30;99.90;;;;;;4861794;29;20466;-51
2021/11/15 04:43:51;;;;;;;5.35;4.03;;;11.30;99.90;;;;;;4882257;29;20092;-48
2021/11/15 04:46:18;;;;;;;4.85;4.35;;;11.30;99.90;;;;;;4872047;29;20112;-49
2021/11/15 04:48:45;;;;;;;4.22;3.58;;;11.30;99.90;;;;;;4855769;29;20053;-51
2021/11/15 04:51:11;;;;;;;5.82;4.40;;;11.30;99.90;;;;;;4868493;29;20226;-49
2021/11/15 04:53:38;;;;;;;5.30;3.92;;;11.30;99.90;;;;;;4882052;29;20083;-50
2021/11/15 04:56:07;;;;;;;4.70;4.10;;;11.30;99.90;;;;;;4870999;29;20132;-48
2021/11/15 04:58:34;;;;;;;4.40;3.95;;;11.30;99.90;;;;;;4872888;29;20106;-48
2021/11/15 05:01:01;;;;;;;4.63;4.00;;;11.30;99.90;;;;;;4881665;29;20057;-47
2021/11/15 05:03:28;;;;;;;4.97;4.43;;;11.20;99.90;;;;;;4887689;29;20437;-50
2021/11/15 05:05:54;;;;;;;6.43;4.32;;;11.30;99.90;;;;;;4889104;29;20178;-50
2021/11/15 05:08:21;;;;;;;4.80;3.70;;;11.30;99.90;;;;;;4888350;29;20424;-50
2021/11/15 05:10:49;;;;;;;4.60;3.95;;;11.20;99.90;;;;;;4877501;29;20155;-49
2021/11/15 05:13:15;;;;;;;5.35;4.55;;;11.30;99.90;;;;;;4882090;29;20152;-51
2021/11/15 05:15:42;;;;;;;5.93;4.85;;;11.20;99.90;;;;;;4886893;29;20091;-49
2021/11/15 05:18:09;;;;;;;4.80;4.30;;;11.20;99.90;;;;;;4871472;29;20053;-50
2021/11/15 05:20:36;;;;;;;5.50;4.55;;;11.20;99.90;;;;;;4883406;29;20583;-50
2021/11/15 05:23:02;;;;;;;5.50;4.43;;;11.20;99.90;;;;;;4878088;29;20156;-52
2021/11/15 05:25:29;;;;;;;4.53;4.00;;;11.20;99.90;;;;;;4870629;29;20425;-45
2021/11/15 05:27:57;;;;;;;5.68;4.72;;;11.20;99.90;;;;;;4868672;29;20095;-48
2021/11/15 05:30:24;;;;;;;4.55;4.15;;;11.20;99.90;;;;;;4877252;29;20592;-48
2021/11/15 05:32:51;;;;;;;4.65;4.15;;;11.20;99.90;;;;;;4886982;29;20076;-51
2021/11/15 05:35:18;;;;;;;4.68;4.22;;;11.20;99.90;;;;;;4889104;29;20052;-46
2021/11/15 05:37:45;;;;;;;4.65;3.85;;;11.20;99.90;;;;;;4870853;29;20057;-47
2021/11/15 05:40:12;;;;;;;5.05;4.32;;;11.20;99.90;;;;;;4882674;29;20151;-45
2021/11/15 05:42:39;;;;;;;5.13;4.13;;;11.20;99.90;;;;;;4873878;29;20453;-47
2021/11/15 05:45:06;;;;;;;5.10;4.57;;;11.20;99.90;;;;;;4871302;29;20072;-47
2021/11/15 05:47:33;;;;;;;4.25;3.58;;;11.20;99.90;;;;;;4871993;29;20072;-46
2021/11/15 05:50:00;;;;;;;4.35;3.75;;;11.20;99.90;;;;;;4875315;29;20080;-50
2021/11/15 05:52:27;;;;;;;4.82;4.32;;;11.20;99.90;;;;;;4888284;29;20084;-48
2021/11/15 05:54:54;;;;;;;4.75;4.07;;;11.20;99.90;;;;;;4890341;29;20175;-45
2021/11/15 05:57:21;;;;;;;5.40;3.85;;;11.20;99.90;;;;;;4890048;29;20049;-50
2021/11/15 05:59:48;;;;;;;5.10;4.30;;;11.20;99.90;;;;;;4889151;29;20084;-52
2021/11/15 06:02:15;;;;;;;4.35;3.83;;;11.20;99.90;;;;;;4869533;29;20508;-50
2021/11/15 06:04:42;;;;;;;6.13;5.07;;;11.20;99.90;;;;;;4868815;29;20752;-52
2021/11/15 06:07:09;;;;;;;4.38;3.92;;;11.20;99.90;;;;;;4872354;29;20055;-47
2021/11/15 06:09:36;;;;;;;6.85;5.05;;;11.20;99.90;;;;;;4875700;29;20049;-52
2021/11/15 06:12:03;;;;;;;6.40;4.72;;;11.20;99.90;;;;;;4875959;29;20075;-53
2021/11/15 06:14:30;;;;;;;5.50;4.45;;;11.20;99.90;;;;;;4876036;29;20144;-51
2021/11/15 06:16:56;;;;;;;5.78;5.10;;;11.20;99.90;;;;;;4877062;29;20076;-51
2021/11/15 06:19:23;;;;;;;5.55;4.78;;;11.20;99.90;;;;;;4877973;29;20101;-45
2021/11/15 06:21:50;;;;;;;5.55;5.00;;;11.20;99.90;;;;;;4878501;29;20139;-46
2021/11/15 06:24:17;;;;;;;6.35;5.20;;;11.20;99.90;;;;;;4873939;29;20120;-49
2021/11/15 06:26:44;;;;;;;5.68;4.78;;;11.20;99.90;;;;;;4876187;29;20495;-47
2021/11/15 06:29:10;;;;;;;6.80;5.10;;;11.20;99.90;;;;;;4875849;29;20144;-48
2021/11/15 06:31:38;;;;;;;6.45;4.75;;;11.20;99.90;;;;;;4873154;29;20171;-52
2021/11/15 06:34:05;;;;;;;6.53;5.35;;;11.30;99.90;;;;;;4873526;29;20056;-47
2021/11/15 06:36:32;;;;;;;6.15;4.68;;;11.20;99.90;;;;;;4874946;29;20080;-47
2021/11/15 06:38:59;;;;;;;5.32;4.60;;;11.20;99.90;;;;;;4874757;29;20049;-46
2021/11/15 06:41:26;;;;;;;4.63;3.92;;;11.30;99.90;;;;;;4872452;29;20163;-47
2021/11/15 06:43:53;;;;;;;4.60;4.20;;;11.20;99.90;;;;;;4873881;29;20128;-49
2021/11/15 06:46:29;;;;;;;4.90;3.55;;;11.20;99.90;;;;;;4866088;29;20045;-47
2021/11/15 06:48:56;;;;;;;5.13;4.47;;;11.20;99.90;;;;;;4878735;29;20061;-51
2021/11/15 06:51:38;;;;;;;5.40;4.55;;;11.20;99.90;;;;;;4879512;29;20064;-47
2021/11/15 06:54:05;;;;;;;5.82;4.00;;;11.20;99.90;;;;;;4876753;29;20135;-48
2021/11/15 06:56:32;;;;;;;5.30;4.45;;;11.20;99.90;;;;;;4864288;29;20203;-46
2021/11/15 06:58:59;;;;;;;4.88;4.18;;;11.20;99.90;;;;;;4864469;29;20076;-45
2021/11/15 07:01:26;;;;;;;5.07;4.45;;;11.20;99.90;;;;;;4860654;29;20664;-47
2021/11/15 07:03:53;;;;;;;4.53;4.07;;;11.20;99.90;;;;;;4879398;29;20049;-52
2021/11/15 07:06:20;;;;;;;4.35;3.90;;;11.20;99.90;;;;;;4853853;29;20664;-50
2021/11/15 07:08:48;;;;;;;4.32;3.63;;;11.20;99.90;;;;;;4873381;29;20098;-46
2021/11/15 07:11:15;;;;;;;5.32;4.03;;;11.20;99.90;;;;;;4875672;29;20274;-48
2021/11/15 07:13:42;;;;;;;5.88;4.22;;;11.20;99.90;;;;;;4880929;29;20103;-52
2021/11/15 07:16:08;;;;;;;5.13;4.47;;;11.20;99.90;;;;;;4877757;29;20076;-48
2021/11/15 07:18:35;;;;;;;6.07;4.43;;;11.20;99.90;;;;;;4874740;29;20171;-47
2021/11/15 07:21:02;;;;;;;4.97;4.38;;;11.20;99.90;;;;;;4867870;29;20048;-48
2021/11/15 07:23:29;;;;;;;5.25;4.28;;;11.20;99.90;;;;;;4869086;29;20437;-53
2021/11/15 07:25:56;;;;;;;5.45;4.35;;;11.20;99.90;;;;;;4875220;29;20165;-47
2021/11/15 07:28:22;;;;;;;4.57;3.80;;;11.20;99.90;;;;;;4873116;29;20452;-47
2021/11/15 07:30:54;;;;;;;4.22;3.45;;;11.20;99.90;;;;;;4865959;29;20084;-54
2021/11/15 07:33:22;;;;;;;5.38;4.80;;;11.20;99.90;;;;;;4847851;29;20059;-48
2021/11/15 07:35:49;;;;;;;4.40;3.97;;;11.20;99.90;;;;;;4866312;29;20080;-46
2021/11/15 07:38:17;;;;;;;4.50;4.10;;;11.30;99.90;;;;;;4867795;29;20164;-45
2021/11/15 07:40:44;;;;;;;4.22;3.83;;;11.20;99.90;;;;;;4868932;29;20156;-46
2021/11/15 07:43:11;;;;;;;4.82;3.72;;;11.20;99.90;;;;;;4855853;29;20135;-46
2021/11/15 07:45:37;;;;;;;4.55;3.95;;;11.20;99.90;;;;;;4878078;29;20493;-48
2021/11/15 07:48:04;;;;;;;4.45;3.85;;;11.20;99.90;;;;;;4867908;29;20207;-50
2021/11/15 07:50:31;;;;;;;5.03;4.30;;;11.20;99.90;;;;;;4869289;29;20099;-51
2021/11/15 07:52:58;;;;;;;4.93;3.97;;;11.30;99.90;;;;;;4869011;29;20324;-48
2021/11/15 07:55:25;;;;;;;5.28;3.80;;;11.30;99.90;;;;;;4878678;29;20618;-48
2021/11/15 07:57:51;;;;;;;5.63;4.10;;;11.30;99.90;;;;;;4858751;29;20100;-53
2021/11/15 08:00:21;;;;;;;5.22;4.30;;;11.30;99.90;;;;;;4865438;29;20596;-50
2021/11/15 08:02:48;;;;;;;5.55;4.38;;;11.30;99.90;;;;;;4854906;29;20637;-50
2021/11/15 08:05:20;;;;;;;6.15;4.20;;;11.30;99.90;;;;;;4881186;29;20683;-48
2021/11/15 08:07:47;;;;;;;4.75;3.90;;;11.30;99.90;;;;;;4880342;29;20527;-51
2021/11/15 08:10:15;;;;;;;5.30;4.03;;;11.30;99.90;;;;;;4865273;29;20163;-51
2021/11/15 08:12:44;;;;;;;4.55;3.85;;;11.30;99.90;;;;;;4881614;29;20045;-50
2021/11/15 08:15:12;;;;;;;5.10;4.40;;;11.40;99.90;;;;;;4882675;29;20326;-45
2021/11/15 08:17:40;;;;;;;5.60;4.35;;;11.40;99.90;;;;;;4883011;29;20534;-47
2021/11/15 08:20:13;;;;;;;5.05;4.22;;;11.40;99.90;;;;;;4879662;29;20131;-48
2021/11/15 08:22:40;;;;;;;5.32;4.57;;;11.40;99.90;;;;;;4856821;29;20132;-47
2021/11/15 08:25:30;;;;;;;5.70;4.38;;;11.50;99.90;;;;;;4863845;29;20143;-48
2021/11/15 08:27:57;;;;;;;4.30;3.75;;;11.40;99.90;;;;;;4877256;29;20096;-50
2021/11/15 08:30:24;;;;;;;5.13;4.43;;;11.50;99.90;;;;;;4882476;29;20140;-53
2021/11/15 08:32:51;;;;;;;4.95;4.28;;;11.50;99.90;;;;;;4858588;29;20168;-52
2021/11/15 08:35:19;;;;;;;4.18;3.78;;;11.50;99.90;;;;;;4835772;29;20128;-51
2021/11/15 08:38:30;;;;;;;6.22;4.50;;;11.50;99.90;;;;;;4851305;29;20411;-53
2021/11/15 08:40:57;;;;;;;6.13;4.45;;;11.50;99.90;;;;;;4835444;29;20141;-52
2021/11/15 08:43:24;;;;;;;5.07;4.10;;;11.50;99.90;;;;;;4869669;29;20052;-51
2021/11/15 08:45:51;;;;;;;5.40;4.40;;;11.50;99.90;;;;;;4865764;29;20136;-45
2021/11/15 08:48:18;;;;;;;5.90;4.30;;;11.50;99.90;;;;;;4873183;29;20053;-51
2021/11/15 08:50:45;;;;;;;6.20;4.32;;;11.50;99.90;;;;;;4868157;29;20462;-53
2021/11/15 08:53:11;;;;;;;4.00;3.60;;;11.50;99.90;;;;;;4864887;29;20104;-52
2021/11/15 08:55:38;;;;;;;5.57;3.95;;;11.60;99.90;;;;;;4882430;29;20080;-52
2021/11/15 08:58:06;;;;;;;5.18;4.35;;;11.60;99.90;;;;;;4880863;29;20239;-50
2021/11/15 09:00:33;;;;;;;4.88;4.15;;;11.60;99.90;;;;;;4862808;29;20182;-51
2021/11/15 09:03:00;;;;;;;5.30;4.50;;;11.70;99.90;;;;;;4878013;29;20052;-52
2021/11/15 09:05:27;;;;;;;5.00;3.97;;;11.70;99.90;;;;;;4874758;29;20329;-50
2021/11/15 09:07:54;;;;;;;4.95;3.88;;;11.70;99.90;;;;;;4866616;29;20107;-54
2021/11/15 09:10:21;;;;;;;5.97;4.50;;;11.80;99.90;;;;;;4874889;29;20109;-50
2021/11/15 09:12:48;;;;;;;5.95;4.70;;;11.80;99.90;;;;;;4877763;29;20449;-46
2021/11/15 09:15:15;;;;;;;5.70;4.97;;;11.80;99.90;;;;;;4883357;29;20087;-47
2021/11/15 09:17:42;;;;;;;5.35;4.18;;;11.80;99.90;;;;;;4884033;29;20414;-52
2021/11/15 09:20:09;;;;;;;5.00;4.40;;;11.80;99.90;;;;;;4885380;29;20087;-48
2021/11/15 09:22:36;;;;;;;5.55;4.68;;;11.80;99.90;;;;;;4879864;29;20152;-46
2021/11/15 09:25:04;;;;;;;5.70;4.57;;;11.80;99.90;;;;;;4869162;29;20121;-51
2021/11/15 09:27:31;;;;;;;4.78;4.25;;;11.80;99.90;;;;;;4874063;29;20135;-48
2021/11/15 09:29:59;;;;;;;6.93;4.45;;;11.80;99.90;;;;;;4876771;29;20418;-47
2021/11/15 09:32:26;;;;;;;7.15;5.47;;;11.90;99.90;;;;;;4882340;29;20108;-49
2021/11/15 09:34:52;;;;;;;6.38;4.80;;;11.90;99.90;;;;;;4876208;29;20088;-45
2021/11/15 09:37:20;;;;;;;5.60;5.00;;;11.90;99.90;;;;;;4882887;29;20071;-53
2021/11/15 09:39:47;;;;;;;5.80;4.40;;;11.90;99.90;;;;;;4857100;29;20061;-47
2021/11/15 09:42:15;;;;;;;6.75;5.32;;;11.90;99.90;;;;;;4875775;29;20089;-49
2021/11/15 09:44:42;;;;;;;6.35;5.15;;;11.80;99.90;;;;;;4867083;29;20060;-51
2021/11/15 09:47:10;;;;;;;6.03;4.75;;;11.80;99.90;;;;;;4885501;29;20056;-48
2021/11/15 09:49:37;;;;;;;5.93;4.95;;;11.80;99.90;;;;;;4878784;29;20131;-45
2021/11/15 09:52:05;;;;;;;7.10;5.50;;;11.90;99.90;;;;;;4871642;29;20064;-47
2021/11/15 09:54:33;;;;;;;5.90;4.93;;;11.90;99.90;;;;;;4871884;29;20483;-49
2021/11/15 09:57:00;;;;;;;5.88;4.63;;;12.00;99.90;;;;;;4874981;29;20140;-46
2021/11/15 09:59:29;;;;;;;5.57;4.45;;;12.00;99.90;;;;;;4878439;29;20144;-50
2021/11/15 10:01:56;;;;;;;6.53;5.20;;;12.00;99.90;;;;;;4881488;29;20052;-49
2021/11/15 10:04:24;;;;;;;8.00;4.82;;;12.00;99.90;;;;;;4872716;29;20128;-51
2021/11/15 10:06:53;;;;;;;6.85;5.28;;;12.00;99.90;;;;;;4873782;29;20092;-50
2021/11/15 10:09:31;;;;;;;6.63;5.20;;;12.00;99.90;;;;;;4872511;29;20088;-49
2021/11/15 10:11:59;;;;;;;5.88;5.00;;;12.00;99.90;;;;;;4882121;29;20081;-47
2021/11/15 10:14:26;;;;;;;6.45;5.30;;;12.00;99.90;;;;;;4868068;29;20053;-54
2021/11/15 10:16:59;;;;;;;7.15;5.28;;;12.00;99.90;;;;;;4866605;29;20109;-49
2021/11/15 10:19:29;;;;;;;7.65;5.30;;;12.00;99.90;;;;;;4874296;29;20040;-52
2021/11/15 10:22:01;;;;;;;6.13;5.50;;;12.00;99.90;;;;;;4857034;29;20111;-53
2021/11/15 10:24:34;;;;;;;6.07;5.45;;;12.00;99.90;;;;;;4868565;29;20135;-51
2021/11/15 10:27:05;;;;;;;6.50;5.80;;;12.00;99.90;;;;;;4855496;29;20092;-47
2021/11/15 10:29:35;;;;;;;6.65;5.97;;;12.10;99.90;;;;;;4884362;29;20132;-47
2021/11/15 10:32:10;;;;;;;6.72;6.05;;;12.00;99.90;;;;;;4877616;29;20529;-49
2021/11/15 10:34:51;;;;;;;7.38;5.75;;;12.00;99.90;;;;;;4870351;29;20091;-48
2021/11/15 10:37:28;;;;;;;6.82;6.10;;;12.10;99.90;;;;;;4883489;29;20092;-47
2021/11/15 10:40:08;;;;;;;8.13;6.80;;;12.10;99.90;;;;;;4883154;29;20155;-50
2021/11/15 10:42:35;;;;;;;7.70;6.65;;;12.10;99.90;;;;;;4879611;29;20045;-47
2021/11/15 10:45:12;;;;;;;9.13;7.43;;;12.10;99.90;;;;;;4865525;29;20565;-52
2021/11/15 10:47:42;;;;;;;9.93;7.60;;;12.10;99.90;;;;;;4876814;29;20136;-53
2021/11/15 10:50:18;;;;;;;9.48;6.72;;;12.10;99.90;;;;;;4882533;29;20210;-51
2021/11/15 10:53:22;;;;;;;9.82;7.93;;;12.10;99.90;;;;;;4883159;29;20056;-52
2021/11/15 10:56:14;;;;;;;10.48;8.75;;;12.10;99.90;;;;;;4867683;29;20140;-48
2021/11/15 10:58:45;;;;;;;9.13;8.23;;;12.10;99.90;;;;;;4883340;29;20132;-47
2021/11/15 11:01:12;;;;;;;9.90;8.10;;;12.10;99.90;;;;;;4865497;29;20342;-51
2021/11/15 11:03:39;;;;;;;8.43;7.18;;;12.10;99.90;;;;;;4870309;29;20152;-51
2021/11/15 11:06:09;;;;;;;8.90;7.75;;;12.20;99.90;;;;;;4867709;29;20402;-44
2021/11/15 11:08:42;;;;;;;9.40;8.27;;;12.20;99.90;;;;;;4864161;29;20061;-50
2021/11/15 11:11:33;;;;;;;8.52;7.13;;;12.20;99.90;;;;;;4870397;29;20796;-48
2021/11/15 11:14:04;;;;;;;9.48;7.93;;;12.20;99.90;;;;;;4874184;29;20606;-46
2021/11/15 11:16:43;;;;;;;7.93;7.13;;;12.30;99.90;;;;;;4879290;29;20053;-47
2021/11/15 11:19:30;;;;;;;8.00;6.75;;;12.30;99.90;;;;;;4883040;29;20108;-50
2021/11/15 11:27:10;;;;;;;7.88;7.07;;;12.40;99.90;;;;;;4880419;29;20091;-48
2021/11/15 11:29:45;;;;;;;8.63;6.85;;;12.40;99.90;;;;;;4855074;29;20084;-51
2021/11/15 11:32:15;;;;;;;8.30;7.40;;;12.40;99.90;;;;;;4870486;29;20516;-50
2021/11/15 11:34:42;;;;;;;8.85;7.88;;;12.30;99.90;;;;;;4879495;29;20139;-50
2021/11/15 11:37:13;;;;;;;7.95;6.90;;;12.30;99.90;;;;;;4866900;29;20060;-52
2021/11/15 11:39:44;;;;;;;8.05;6.72;;;12.30;99.90;;;;;;4879675;29;20436;-48
2021/11/15 11:42:14;;;;;;;8.90;8.00;;;12.40;99.90;;;;;;4879431;29;20492;-47
2021/11/15 11:44:41;;;;;;;8.45;7.47;;;12.30;99.90;;;;;;4883869;29;20091;-49
2021/11/15 11:47:10;;;;;;;10.18;8.00;;;12.30;99.90;;;;;;4879244;29;20152;-48
2021/11/15 11:49:37;;;;;;;8.73;7.40;;;12.30;99.90;;;;;;4862896;29;20429;-48
2021/11/15 11:52:10;;;;;;;9.02;8.05;;;12.30;99.90;;;;;;4873555;29;20100;-49
2021/11/15 11:54:47;;;;;;;8.33;7.00;;;12.30;99.90;;;;;;4882085;29;20479;-46
2021/11/15 11:57:24;;;;;;;9.23;7.43;;;12.30;99.90;;;;;;4873968;29;20128;-51
2021/11/15 11:59:51;;;;;;;8.43;7.15;;;12.30;99.90;;;;;;4870171;29;20152;-54
2021/11/15 12:02:22;;;;;;;7.53;6.75;;;12.40;99.90;;;;;;4872760;29;20048;-50
2021/11/15 12:04:55;;;;;;;9.23;8.32;;;12.30;99.90;;;;;;4876959;29;20480;-49
2021/11/15 12:07:42;;;;;;;9.93;8.35;;;12.30;99.90;;;;;;4875030;29;20521;-48
2021/11/15 12:10:36;;;;;;;9.43;7.72;;;12.20;99.90;;;;;;4847136;29;20053;-49
2021/11/15 12:13:05;;;;;;;10.68;8.88;;;12.30;99.90;;;;;;4869501;29;20601;-47
2021/11/15 12:15:42;;;;;;;9.68;8.68;;;12.30;99.80;;;;;;4861025;29;20128;-52
2021/11/15 12:18:19;;;;;;;9.93;8.32;;;12.30;99.90;;;;;;4872238;29;20064;-51
2021/11/15 12:21:10;;;;;;;9.50;8.38;;;12.30;99.90;;;;;;4863910;29;20561;-49
2021/11/15 12:24:04;;;;;;;12.63;8.20;;;12.30;99.90;;;;;;4866432;29;20063;-53
2021/11/15 12:26:40;;;;;;;10.75;8.55;;;12.30;99.90;;;;;;4857794;29;20212;-50
2021/11/15 12:29:21;;;;;;;9.57;8.40;;;12.30;99.90;;;;;;4871151;29;20175;-46
2021/11/15 12:31:50;;;;;;;11.35;10.15;;;12.30;99.90;;;;;;4871793;29;20083;-51
2021/11/15 12:34:17;;;;;;;10.77;9.68;;;12.20;99.90;;;;;;4875312;29;20051;-52
2021/11/15 12:36:50;;;;;;;11.55;9.35;;;12.20;99.90;;;;;;4866001;29;20056;-47
2021/11/15 12:39:18;;;;;;;10.07;8.65;;;12.20;99.80;;;;;;4880124;29;20148;-48
2021/11/15 12:41:50;;;;;;;11.75;9.32;;;12.20;99.90;;;;;;4864973;29;20564;-52
2021/11/15 12:44:28;;;;;;;11.10;9.18;;;12.10;99.90;;;;;;4863503;29;20092;-51
2021/11/15 12:47:12;;;;;;;9.88;8.88;;;12.10;99.90;;;;;;4881716;29;20060;-51
2021/11/15 12:49:41;;;;;;;9.75;8.60;;;12.20;99.90;;;;;;4882280;29;20429;-51
2021/11/15 12:52:09;;;;;;;10.25;8.15;;;12.20;99.90;;;;;;4879222;29;20937;-46
2021/11/15 12:54:37;;;;;;;9.63;8.40;;;12.20;99.70;;;;;;4879290;29;20347;-51
2021/11/15 12:57:25;;;;;;;8.60;7.70;;;12.30;99.60;;;;;;4862407;29;20088;-52
2021/11/15 12:59:55;;;;;;;9.38;8.48;;;12.30;99.70;;;;;;4860355;29;20064;-52